Time;durP1;ratioP1;P1;durP2;ratioP2;P2;SDS_P1;SDS_P2;PMS_P1;PMS_P2;Temp;Humidity;BMP_temperature;BMP_pressure;BME280_temperature;BME280_humidity;BME280_pressure;Samples;Min_cycle;Max_cycle;Signal;HPM_P1;HPM_P2
2023/12/08 00:02:54;;;;;;;109.80;101.97;;;0.80;99.90;;;;;;12425623;28;20046;-80
2023/12/08 00:08:57;;;;;;;105.30;97.63;;;0.80;99.90;;;;;;12495573;28;20058;-82
2023/12/08 00:15:01;;;;;;;107.50;99.85;;;0.90;99.90;;;;;;12433247;28;20049;-78
2023/12/08 00:21:06;;;;;;;110.63;102.83;;;0.90;99.90;;;;;;12500811;28;20095;-78
2023/12/08 00:27:13;;;;;;;110.50;102.50;;;0.90;99.90;;;;;;12414927;28;20053;-79
2023/12/08 00:33:18;;;;;;;113.30;105.68;;;0.90;99.90;;;;;;12456421;28;20128;-79
2023/12/08 00:39:22;;;;;;;115.75;107.90;;;0.90;99.90;;;;;;12435884;28;20046;-78
2023/12/08 00:45:28;;;;;;;109.13;101.57;;;1.00;99.90;;;;;;12432390;28;20057;-79
2023/12/08 00:51:30;;;;;;;113.60;105.80;;;1.00;99.90;;;;;;12535781;28;20046;-79
2023/12/08 00:57:32;;;;;;;112.22;104.75;;;1.10;99.90;;;;;;12486231;28;20057;-80
2023/12/08 01:03:34;;;;;;;113.18;105.40;;;1.10;99.90;;;;;;12434305;28;20042;-79
2023/12/08 01:09:36;;;;;;;110.63;103.05;;;1.20;99.90;;;;;;12494976;28;20057;-79
2023/12/08 01:15:39;;;;;;;106.78;99.47;;;1.20;99.90;;;;;;12518255;28;20050;-79
2023/12/08 01:21:41;;;;;;;113.60;106.13;;;1.20;99.90;;;;;;12513637;28;20049;-80
2023/12/08 01:27:43;;;;;;;102.60;96.00;;;1.30;99.90;;;;;;12448364;28;20051;-82
2023/12/08 01:33:45;;;;;;;106.60;99.50;;;1.20;99.90;;;;;;12502923;28;20054;-81
2023/12/08 01:39:47;;;;;;;108.15;100.95;;;1.20;99.90;;;;;;12511142;28;20050;-80
2023/12/08 01:45:49;;;;;;;109.03;102.10;;;1.20;99.90;;;;;;12497693;28;20054;-79
2023/12/08 01:51:51;;;;;;;111.57;104.50;;;1.40;99.90;;;;;;12430699;28;20073;-79
2023/12/08 01:57:54;;;;;;;111.70;104.40;;;1.40;99.90;;;;;;12426507;28;20062;-79
2023/12/08 02:03:56;;;;;;;108.32;101.53;;;1.50;99.90;;;;;;12449962;28;20054;-80
2023/12/08 02:09:58;;;;;;;112.03;104.75;;;1.50;99.90;;;;;;12494250;28;20050;-80
2023/12/08 02:16:09;;;;;;;107.75;101.15;;;1.50;99.90;;;;;;12503827;28;20411;-79
2023/12/08 02:22:11;;;;;;;103.95;97.72;;;1.50;99.90;;;;;;12469130;28;20045;-78
2023/12/08 02:28:13;;;;;;;110.03;103.45;;;1.60;99.90;;;;;;12428093;28;20060;-80
2023/12/08 02:34:16;;;;;;;106.65;100.25;;;1.60;99.90;;;;;;12489708;28;20501;-79
2023/12/08 02:40:18;;;;;;;103.88;97.57;;;1.60;99.90;;;;;;12491765;28;20061;-78
2023/12/08 02:46:20;;;;;;;106.05;99.55;;;1.60;99.90;;;;;;12540390;28;20050;-80
2023/12/08 02:52:22;;;;;;;105.57;99.38;;;1.70;99.90;;;;;;12506757;28;20042;-78
2023/12/08 02:58:24;;;;;;;103.28;96.68;;;1.70;99.90;;;;;;12421500;28;20050;-81
2023/12/08 03:04:26;;;;;;;106.55;100.38;;;1.70;99.90;;;;;;12531581;28;20464;-79
2023/12/08 03:10:29;;;;;;;105.82;99.35;;;1.60;99.90;;;;;;12489841;28;20080;-83
2023/12/08 03:16:32;;;;;;;106.00;99.88;;;1.60;99.90;;;;;;12508526;28;20049;-82
2023/12/08 03:22:36;;;;;;;106.28;99.80;;;1.60;99.90;;;;;;12496848;28;20053;-81
2023/12/08 03:28:38;;;;;;;103.45;97.43;;;1.70;99.90;;;;;;12490359;28;20057;-79
2023/12/08 03:34:40;;;;;;;99.07;93.32;;;1.70;99.90;;;;;;12480814;28;20054;-79
2023/12/08 03:40:42;;;;;;;103.10;97.03;;;1.70;99.90;;;;;;12486034;28;20104;-79
2023/12/08 03:46:44;;;;;;;99.70;93.70;;;1.70;99.90;;;;;;12484250;28;20145;-79
2023/12/08 03:52:46;;;;;;;104.68;98.43;;;1.60;99.90;;;;;;12443111;28;20058;-80
2023/12/08 03:58:48;;;;;;;99.65;93.55;;;1.60;99.90;;;;;;12417349;28;20077;-82
2023/12/08 04:04:50;;;;;;;105.00;98.60;;;1.60;99.90;;;;;;12395058;28;20041;-79
2023/12/08 04:10:52;;;;;;;102.25;95.97;;;1.60;99.90;;;;;;12477222;28;20503;-80
2023/12/08 04:16:54;;;;;;;98.82;92.93;;;1.60;99.90;;;;;;12472294;28;20050;-81
2023/12/08 04:22:56;;;;;;;100.55;94.43;;;1.60;99.90;;;;;;12493392;28;20055;-80
2023/12/08 04:28:58;;;;;;;97.03;91.30;;;1.60;99.90;;;;;;12514093;28;20078;-81
2023/12/08 04:35:00;;;;;;;98.50;92.70;;;1.70;99.90;;;;;;12542135;28;20102;-83
2023/12/08 04:41:02;;;;;;;96.13;90.32;;;1.70;99.90;;;;;;12524859;28;20141;-81
2023/12/08 04:47:04;;;;;;;91.25;85.72;;;1.70;99.90;;;;;;12463598;28;20054;-80
2023/12/08 04:53:06;;;;;;;96.68;90.57;;;1.70;99.90;;;;;;12463618;28;20051;-80
2023/12/08 04:59:08;;;;;;;90.60;85.00;;;1.70;99.90;;;;;;12466202;28;20484;-80
2023/12/08 05:05:10;;;;;;;91.30;85.68;;;1.60;99.90;;;;;;12481776;28;20045;-80
2023/12/08 05:11:12;;;;;;;92.72;87.03;;;1.70;99.90;;;;;;12623468;28;20060;-78
2023/12/08 05:17:15;;;;;;;89.82;84.35;;;1.70;99.90;;;;;;12639259;28;20122;-79
2023/12/08 05:23:18;;;;;;;89.78;84.07;;;1.70;99.90;;;;;;12621029;28;20403;-80
2023/12/08 05:29:20;;;;;;;89.75;84.18;;;1.80;99.90;;;;;;12619176;28;20056;-81
2023/12/08 05:35:22;;;;;;;90.50;84.68;;;1.80;99.90;;;;;;12628964;28;20050;-80
2023/12/08 05:41:24;;;;;;;93.50;87.53;;;1.80;99.90;;;;;;12606652;28;20048;-80
2023/12/08 05:47:26;;;;;;;94.57;88.32;;;1.80;99.90;;;;;;12624904;28;20040;-79
2023/12/08 05:53:29;;;;;;;92.00;86.20;;;1.80;99.90;;;;;;12623636;28;20193;-79
2023/12/08 05:59:31;;;;;;;92.90;87.00;;;1.70;99.90;;;;;;12615055;28;20060;-79
2023/12/08 06:05:33;;;;;;;88.00;82.47;;;1.80;99.90;;;;;;12607067;28;20494;-79
2023/12/08 06:11:36;;;;;;;87.72;82.22;;;1.80;99.90;;;;;;12423967;28;20164;-79
2023/12/08 06:17:38;;;;;;;85.35;80.20;;;1.80;99.90;;;;;;12480743;28;20124;-79
2023/12/08 06:23:41;;;;;;;89.32;83.72;;;1.80;99.90;;;;;;12475608;28;20515;-80
2023/12/08 06:29:43;;;;;;;81.70;76.80;;;1.90;99.90;;;;;;12451178;28;20050;-79
2023/12/08 06:35:46;;;;;;;85.40;80.03;;;1.90;99.90;;;;;;12501915;28;20054;-79
2023/12/08 06:41:49;;;;;;;88.70;82.80;;;2.00;99.90;;;;;;12507678;28;20093;-79
2023/12/08 06:47:51;;;;;;;89.32;83.45;;;1.90;99.90;;;;;;12485351;28;20046;-79
2023/12/08 06:53:53;;;;;;;96.00;89.68;;;1.90;99.90;;;;;;12511209;28;20050;-78
2023/12/08 06:59:55;;;;;;;98.65;91.95;;;1.80;99.90;;;;;;12424404;28;20046;-78
2023/12/08 07:06:00;;;;;;;99.68;92.78;;;1.70;99.90;;;;;;12496248;28;20042;-80
2023/12/08 07:12:03;;;;;;;94.10;87.20;;;1.50;99.90;;;;;;12418637;28;20054;-80
2023/12/08 07:18:05;;;;;;;92.32;85.22;;;1.50;99.90;;;;;;12511462;28;20057;-79
2023/12/08 07:24:07;;;;;;;89.68;82.57;;;1.50;99.90;;;;;;12441727;28;20057;-78
2023/12/08 07:30:10;;;;;;;86.10;78.95;;;1.50;99.90;;;;;;12421558;28;21193;-78
2023/12/08 07:36:13;;;;;;;86.00;78.72;;;1.60;99.90;;;;;;12478337;28;20496;-77
2023/12/08 07:42:15;;;;;;;87.32;79.95;;;1.60;99.90;;;;;;12493532;28;20075;-78
2023/12/08 07:48:17;;;;;;;83.22;75.93;;;1.50;99.90;;;;;;12470298;28;20054;-78
2023/12/08 07:54:20;;;;;;;77.85;71.22;;;1.40;99.90;;;;;;12512078;28;20098;-79
2023/12/08 08:00:23;;;;;;;79.40;73.13;;;1.40;99.90;;;;;;12483374;28;20080;-78
2023/12/08 08:06:25;;;;;;;79.60;73.13;;;1.40;99.90;;;;;;12496621;28;20061;-78
2023/12/08 08:12:27;;;;;;;77.75;71.45;;;1.40;99.90;;;;;;12486054;28;20050;-80
2023/12/08 08:18:29;;;;;;;76.85;70.28;;;1.30;99.90;;;;;;12491388;28;20507;-78
2023/12/08 08:24:31;;;;;;;75.45;68.97;;;1.30;99.90;;;;;;12485223;28;20047;-78
2023/12/08 08:30:34;;;;;;;75.47;69.20;;;1.30;99.90;;;;;;12483226;28;20046;-79
2023/12/08 08:36:36;;;;;;;75.93;69.13;;;1.30;99.90;;;;;;12494523;28;20057;-77
2023/12/08 08:42:38;;;;;;;73.10;66.50;;;1.20;99.90;;;;;;12486811;28;20053;-78
2023/12/08 08:48:40;;;;;;;72.03;65.97;;;1.30;99.90;;;;;;12502247;28;20042;-78
2023/12/08 08:54:42;;;;;;;72.15;66.07;;;1.20;99.90;;;;;;12428488;28;20054;-78
2023/12/08 09:00:45;;;;;;;72.13;65.72;;;1.20;99.90;;;;;;12553910;28;20043;-78
2023/12/08 09:06:47;;;;;;;75.80;69.57;;;1.20;99.90;;;;;;12431200;28;20054;-78
2023/12/08 09:12:49;;;;;;;76.30;70.10;;;1.30;99.90;;;;;;12504977;28;20461;-78
2023/12/08 09:18:51;;;;;;;76.25;70.05;;;1.30;99.90;;;;;;12497482;28;20047;-78
2023/12/08 09:24:53;;;;;;;78.07;71.55;;;1.30;99.90;;;;;;12496869;28;20054;-78
2023/12/08 09:30:55;;;;;;;75.15;68.68;;;1.20;99.90;;;;;;12427327;28;20462;-77
2023/12/08 09:36:57;;;;;;;74.75;68.22;;;1.20;99.90;;;;;;12504897;28;20392;-77
2023/12/08 09:43:28;;;;;;;75.47;69.10;;;1.20;99.90;;;;;;12483935;28;20134;-79
2023/12/08 09:49:40;;;;;;;79.35;72.50;;;1.30;99.90;;;;;;12424282;28;20058;-77
2023/12/08 09:55:43;;;;;;;77.22;70.65;;;1.30;99.90;;;;;;12489494;28;20065;-78
2023/12/08 10:01:45;;;;;;;75.90;69.50;;;1.30;99.90;;;;;;12505586;28;20078;-78
2023/12/08 10:07:50;;;;;;;77.75;71.18;;;1.30;99.90;;;;;;12503542;28;20054;-78
2023/12/08 10:13:52;;;;;;;76.50;69.82;;;1.30;99.90;;;;;;12498749;28;20062;-77
2023/12/08 10:20:09;;;;;;;74.15;67.82;;;1.30;99.90;;;;;;12477677;28;20042;-79
2023/12/08 10:26:12;;;;;;;73.38;66.95;;;1.30;99.90;;;;;;12487641;28;20050;-77
2023/12/08 10:32:14;;;;;;;74.88;68.75;;;1.30;99.90;;;;;;12511410;28;20046;-78
2023/12/08 10:38:18;;;;;;;73.72;67.40;;;1.30;99.90;;;;;;12499737;28;20537;-77
2023/12/08 10:44:23;;;;;;;75.85;69.35;;;1.30;99.90;;;;;;12453602;28;20050;-77
2023/12/08 10:50:28;;;;;;;75.30;68.68;;;1.40;99.90;;;;;;12511303;28;20043;-79
2023/12/08 10:56:32;;;;;;;79.35;72.78;;;1.40;99.90;;;;;;12518550;28;20132;-77
2023/12/08 11:02:36;;;;;;;78.85;72.28;;;1.50;99.90;;;;;;12505234;28;20476;-78
2023/12/08 11:08:44;;;;;;;79.18;72.70;;;1.50;99.90;;;;;;12430460;28;20485;-78
2023/12/08 11:14:56;;;;;;;81.20;74.70;;;1.60;99.90;;;;;;12428387;28;20054;-78
2023/12/08 11:20:59;;;;;;;87.97;80.47;;;1.60;99.90;;;;;;12524554;28;20046;-77
2023/12/08 11:27:19;;;;;;;87.97;80.70;;;1.70;99.90;;;;;;12490070;28;20050;-77
2023/12/08 11:33:43;;;;;;;88.18;80.90;;;1.60;99.90;;;;;;12421168;28;20140;-76
2023/12/08 11:39:45;;;;;;;87.73;80.33;;;1.60;99.90;;;;;;12434380;28;20488;-80
2023/12/08 11:45:49;;;;;;;86.72;79.60;;;1.70;99.90;;;;;;12433228;28;20047;-79
2023/12/08 11:52:11;;;;;;;85.80;78.35;;;1.60;99.90;;;;;;12534483;28;20039;-79
2023/12/08 11:58:17;;;;;;;82.43;75.20;;;1.60;99.90;;;;;;12431119;28;20069;-80
2023/12/08 12:04:19;;;;;;;85.57;77.97;;;1.70;99.90;;;;;;12424566;28;20072;-77
2023/12/08 12:10:23;;;;;;;87.68;80.30;;;1.70;99.90;;;;;;12495558;28;20122;-78
2023/12/08 12:16:27;;;;;;;91.53;83.55;;;1.70;99.90;;;;;;12497618;28;20047;-78
2023/12/08 12:22:29;;;;;;;94.57;86.85;;;1.80;99.90;;;;;;12433781;28;20518;-78
2023/12/08 12:28:31;;;;;;;96.90;88.82;;;1.80;99.90;;;;;;12467490;28;20042;-78
2023/12/08 12:34:35;;;;;;;97.78;89.63;;;1.80;99.90;;;;;;12556555;28;20057;-78
2023/12/08 12:40:37;;;;;;;96.87;88.77;;;1.80;99.90;;;;;;12510091;28;20046;-79
2023/12/08 12:46:43;;;;;;;101.40;93.15;;;1.80;99.90;;;;;;12484238;28;20058;-77
2023/12/08 12:52:45;;;;;;;102.72;94.60;;;1.90;99.90;;;;;;12433615;28;20060;-78
2023/12/08 12:59:05;;;;;;;100.50;92.13;;;1.90;99.90;;;;;;12500665;28;20056;-78
2023/12/08 13:05:09;;;;;;;101.57;93.30;;;1.90;99.90;;;;;;12474719;28;20054;-80
2023/12/08 13:11:12;;;;;;;103.93;95.55;;;1.90;99.90;;;;;;12432927;28;20065;-77
2023/12/08 13:17:14;;;;;;;111.72;102.53;;;1.90;99.90;;;;;;12508846;28;20455;-79
2023/12/08 13:23:17;;;;;;;107.35;98.25;;;2.00;99.90;;;;;;12430120;28;20045;-78
2023/12/08 13:29:21;;;;;;;109.47;100.50;;;2.00;99.90;;;;;;12501733;28;20058;-78
2023/12/08 13:35:23;;;;;;;107.43;98.75;;;2.00;99.90;;;;;;12520836;28;20070;-78
2023/12/08 13:41:25;;;;;;;113.25;103.93;;;2.10;99.90;;;;;;12429336;28;20042;-78
2023/12/08 13:47:26;;;;;;;109.55;100.90;;;2.10;99.90;;;;;;12517982;28;20054;-79
2023/12/08 13:53:29;;;;;;;115.43;106.20;;;2.10;99.90;;;;;;12536654;28;20051;-78
2023/12/08 13:59:33;;;;;;;117.40;107.95;;;2.20;99.90;;;;;;12503853;28;20038;-78
2023/12/08 14:05:35;;;;;;;121.20;111.90;;;2.20;99.90;;;;;;12498648;28;20629;-78
2023/12/08 14:11:37;;;;;;;133.15;122.45;;;2.20;99.90;;;;;;12484956;28;20098;-80
2023/12/08 14:17:39;;;;;;;130.95;121.00;;;2.20;99.90;;;;;;12445747;28;20049;-78
2023/12/08 14:23:42;;;;;;;131.45;121.30;;;2.30;99.90;;;;;;12504913;28;20053;-78
2023/12/08 14:29:44;;;;;;;143.15;132.30;;;2.30;99.90;;;;;;12508164;28;20408;-78
2023/12/08 14:35:46;;;;;;;145.80;134.75;;;2.30;99.90;;;;;;12490498;28;20069;-79
2023/12/08 14:41:49;;;;;;;138.52;127.18;;;2.40;99.90;;;;;;12565906;28;20038;-78
2023/12/08 14:47:51;;;;;;;146.77;135.40;;;2.40;99.90;;;;;;12503125;28;20054;-79
2023/12/08 14:53:53;;;;;;;151.40;139.93;;;2.50;99.90;;;;;;12466290;28;20047;-78
2023/12/08 14:59:56;;;;;;;153.82;142.43;;;2.50;99.90;;;;;;12443317;28;20047;-79
2023/12/08 15:05:59;;;;;;;159.07;147.25;;;2.60;99.90;;;;;;12440717;28;20095;-78
2023/12/08 15:12:03;;;;;;;158.52;146.27;;;2.70;99.90;;;;;;12442546;28;20062;-78
2023/12/08 15:18:07;;;;;;;163.27;151.40;;;2.70;99.90;;;;;;12499739;28;20046;-78
2023/12/08 15:24:09;;;;;;;166.32;153.93;;;2.70;99.90;;;;;;12488665;28;20508;-78
2023/12/08 15:30:11;;;;;;;164.20;152.18;;;2.80;99.90;;;;;;12437480;28;20127;-77
2023/12/08 15:36:15;;;;;;;168.90;156.10;;;2.80;99.90;;;;;;12496672;28;20046;-78
2023/12/08 15:42:18;;;;;;;167.70;155.35;;;2.80;99.90;;;;;;12445660;28;20499;-78
2023/12/08 15:48:22;;;;;;;170.32;157.02;;;2.90;99.90;;;;;;12496685;28;20050;-78
2023/12/08 15:54:24;;;;;;;174.82;161.15;;;2.90;99.90;;;;;;12490086;28;20078;-77
2023/12/08 16:00:26;;;;;;;193.70;179.63;;;2.90;99.90;;;;;;12537472;28;20040;-78
2023/12/08 16:06:29;;;;;;;199.48;184.85;;;2.90;99.90;;;;;;12499253;28;20054;-77
2023/12/08 16:12:31;;;;;;;197.43;183.52;;;3.00;99.90;;;;;;12519644;28;20057;-77
2023/12/08 16:18:33;;;;;;;210.98;196.18;;;3.10;99.90;;;;;;12515044;28;20484;-77
2023/12/08 16:24:37;;;;;;;224.70;209.27;;;3.10;99.90;;;;;;12534152;28;20042;-78
2023/12/08 16:30:41;;;;;;;225.80;210.20;;;3.10;99.90;;;;;;12517179;28;20064;-78
2023/12/08 16:36:43;;;;;;;230.55;213.95;;;3.20;99.90;;;;;;12497022;28;20492;-78
2023/12/08 16:42:46;;;;;;;244.63;228.07;;;3.30;99.90;;;;;;12508043;28;20472;-78
2023/12/08 16:48:48;;;;;;;227.05;211.32;;;3.30;99.90;;;;;;12494397;28;20058;-78
2023/12/08 16:54:52;;;;;;;232.43;215.90;;;3.40;99.90;;;;;;12463560;28;20046;-77
2023/12/08 17:00:54;;;;;;;247.93;231.25;;;3.50;99.90;;;;;;12513707;28;20064;-77
2023/12/08 17:06:56;;;;;;;252.43;235.23;;;3.50;99.90;;;;;;12424764;28;20066;-78
2023/12/08 17:13:01;;;;;;;254.20;237.05;;;3.60;99.90;;;;;;12510077;28;20107;-78
2023/12/08 17:19:03;;;;;;;263.75;246.05;;;3.60;99.90;;;;;;12515923;28;20053;-78
2023/12/08 17:25:05;;;;;;;273.33;254.18;;;3.70;99.90;;;;;;12515075;28;20046;-79
2023/12/08 17:31:08;;;;;;;278.70;260.02;;;3.70;99.90;;;;;;12499110;28;20137;-78
2023/12/08 17:37:10;;;;;;;266.25;247.82;;;3.70;99.90;;;;;;12497286;28;20058;-79
2023/12/08 17:43:12;;;;;;;285.75;266.48;;;3.80;99.90;;;;;;12524443;28;20043;-78
2023/12/08 17:49:14;;;;;;;293.02;273.58;;;3.80;99.90;;;;;;12492144;28;20050;-79
2023/12/08 17:55:16;;;;;;;290.67;270.88;;;3.80;99.90;;;;;;12488338;28;20127;-79
2023/12/08 18:01:19;;;;;;;294.60;274.77;;;3.80;99.90;;;;;;12518966;28;20056;-79
2023/12/08 18:07:21;;;;;;;305.35;284.55;;;4.00;99.90;;;;;;12439804;28;20065;-78
2023/12/08 18:13:24;;;;;;;289.42;270.23;;;4.00;99.90;;;;;;12437353;28;20115;-79
2023/12/08 18:19:26;;;;;;;291.85;272.38;;;4.00;99.90;;;;;;12527717;28;20050;-78
2023/12/08 18:25:28;;;;;;;274.80;256.25;;;4.10;99.90;;;;;;12511448;28;20499;-80
2023/12/08 18:31:31;;;;;;;289.70;269.60;;;4.20;99.90;;;;;;12520402;28;20132;-80
2023/12/08 18:37:33;;;;;;;289.67;270.40;;;4.20;99.90;;;;;;12512207;28;20061;-78
2023/12/08 18:43:35;;;;;;;303.75;283.02;;;4.20;99.90;;;;;;12513486;28;20124;-78
2023/12/08 18:49:37;;;;;;;309.35;288.67;;;4.30;99.90;;;;;;12535218;28;20086;-79
2023/12/08 18:55:39;;;;;;;292.48;273.00;;;4.20;99.90;;;;;;12542709;28;20520;-79
2023/12/08 19:01:41;;;;;;;302.98;282.67;;;4.30;99.90;;;;;;12525482;28;20045;-79
2023/12/08 19:07:43;;;;;;;309.90;289.52;;;4.40;99.90;;;;;;12511224;28;20114;-78
2023/12/08 19:13:46;;;;;;;311.23;289.38;;;4.40;99.90;;;;;;12528170;28;20054;-79
2023/12/08 19:19:48;;;;;;;258.45;240.35;;;4.50;99.90;;;;;;12486795;28;20052;-79
2023/12/08 19:25:51;;;;;;;313.95;292.33;;;4.50;99.90;;;;;;12440918;28;20052;-79
2023/12/08 19:31:53;;;;;;;310.42;289.33;;;4.50;99.90;;;;;;12504496;28;20054;-79
2023/12/08 19:37:57;;;;;;;317.85;295.88;;;4.50;99.90;;;;;;12488244;28;20050;-78
2023/12/08 19:43:59;;;;;;;312.80;291.25;;;4.40;99.90;;;;;;12492149;28;20058;-79
2023/12/08 19:50:04;;;;;;;325.60;302.58;;;4.40;99.90;;;;;;12492149;28;20050;-78
2023/12/08 19:56:06;;;;;;;331.48;309.27;;;4.40;99.90;;;;;;12510601;28;20454;-79
2023/12/08 20:02:08;;;;;;;339.23;315.73;;;4.50;99.90;;;;;;12472641;28;20480;-78
2023/12/08 20:08:11;;;;;;;351.50;327.23;;;4.70;99.90;;;;;;12495144;28;20139;-79
2023/12/08 20:14:13;;;;;;;346.30;322.52;;;4.80;99.90;;;;;;12452968;28;20057;-78
2023/12/08 20:20:15;;;;;;;343.23;319.15;;;4.80;99.90;;;;;;12465919;28;20046;-79
2023/12/08 20:26:17;;;;;;;304.38;281.83;;;4.90;99.90;;;;;;12504277;28;20055;-79
2023/12/08 20:32:19;;;;;;;300.35;277.92;;;5.00;99.90;;;;;;12505378;28;20058;-79
2023/12/08 20:38:22;;;;;;;323.38;299.58;;;5.00;99.90;;;;;;12435692;28;20050;-79
2023/12/08 20:44:23;;;;;;;309.75;287.05;;;5.00;99.90;;;;;;12441930;28;20054;-79
2023/12/08 20:50:25;;;;;;;310.25;286.88;;;5.10;99.90;;;;;;12507673;28;20053;-79
2023/12/08 20:56:31;;;;;;;300.55;277.38;;;5.10;99.90;;;;;;12508866;28;20058;-80
2023/12/08 21:02:33;;;;;;;323.08;299.40;;;5.30;99.90;;;;;;12523763;28;20061;-80
2023/12/08 21:08:36;;;;;;;303.23;280.65;;;5.30;99.90;;;;;;12518570;28;20113;-79
2023/12/08 21:14:38;;;;;;;300.55;277.17;;;5.30;99.90;;;;;;12499529;28;20050;-79
2023/12/08 21:20:40;;;;;;;283.05;260.55;;;5.30;99.90;;;;;;12510838;28;20050;-79
2023/12/08 21:26:43;;;;;;;283.27;262.30;;;5.50;99.90;;;;;;12434025;28;20070;-80
2023/12/08 21:32:45;;;;;;;279.63;258.05;;;5.50;99.90;;;;;;12426089;28;20475;-80
2023/12/08 21:38:49;;;;;;;265.58;245.23;;;5.50;99.90;;;;;;12505371;28;20054;-79
2023/12/08 21:44:51;;;;;;;265.45;244.25;;;5.50;99.90;;;;;;12518639;28;20130;-79
2023/12/08 21:50:53;;;;;;;253.35;233.88;;;5.50;99.90;;;;;;12514471;28;20087;-80
2023/12/08 21:56:55;;;;;;;283.98;263.02;;;5.60;99.90;;;;;;12515354;28;20068;-79
2023/12/08 22:02:57;;;;;;;270.00;249.90;;;5.60;99.90;;;;;;12517096;28;20137;-80
2023/12/08 22:09:00;;;;;;;254.25;234.90;;;5.60;99.90;;;;;;12444995;28;20137;-79
2023/12/08 22:15:02;;;;;;;256.08;236.55;;;5.50;99.90;;;;;;12445260;28;20436;-80
2023/12/08 22:21:07;;;;;;;258.65;239.75;;;5.50;99.90;;;;;;12485172;28;20480;-79
2023/12/08 22:27:10;;;;;;;260.23;241.48;;;5.50;99.90;;;;;;12453194;28;20416;-79
2023/12/08 22:33:12;;;;;;;262.27;243.57;;;5.50;99.90;;;;;;12503833;28;20057;-78
2023/12/08 22:39:15;;;;;;;255.32;236.93;;;5.50;99.90;;;;;;12475832;28;20076;-79
2023/12/08 22:45:18;;;;;;;250.50;232.50;;;5.40;99.90;;;;;;12467714;28;20051;-78
2023/12/08 22:51:20;;;;;;;248.02;230.35;;;5.50;99.90;;;;;;12435457;28;20065;-78
2023/12/08 22:57:39;;;;;;;239.32;221.55;;;5.50;99.90;;;;;;12439921;28;20098;-79
2023/12/08 23:03:42;;;;;;;242.88;225.15;;;5.50;99.90;;;;;;12436733;28;20046;-78
2023/12/08 23:09:44;;;;;;;247.35;229.63;;;5.50;99.90;;;;;;12508151;28;20054;-79
2023/12/08 23:15:46;;;;;;;247.40;230.45;;;5.50;99.90;;;;;;12508015;28;20133;-78
2023/12/08 23:21:48;;;;;;;248.18;230.15;;;5.40;99.90;;;;;;12487397;28;20046;-78
2023/12/08 23:27:50;;;;;;;258.17;239.85;;;5.50;99.90;;;;;;12487789;28;20051;-79
2023/12/08 23:33:52;;;;;;;254.63;236.88;;;5.50;99.90;;;;;;12496959;28;20060;-79
2023/12/08 23:39:57;;;;;;;243.15;226.45;;;5.50;99.90;;;;;;12417911;28;20053;-78
2023/12/08 23:46:00;;;;;;;243.45;226.30;;;5.40;99.90;;;;;;12512433;28;20046;-82
2023/12/08 23:52:03;;;;;;;233.43;217.70;;;5.40;99.90;;;;;;12536071;28;20050;-79
2023/12/08 23:58:05;;;;;;;231.48;215.43;;;5.40;99.90;;;;;;12512803;28;20575;-79
